sensor_id;sensor_type;location;lat;lon;timestamp;temperature;humidity
1361;DHT22;674;45.552;-122.600;2022-11-20T00:01:35;4.10;1.00
1361;DHT22;674;45.552;-122.600;2022-11-20T00:04:04;4.10;1.00
1361;DHT22;674;45.552;-122.600;2022-11-20T00:06:32;4.00;1.00
1361;DHT22;674;45.552;-122.600;2022-11-20T00:09:01;4.10;1.00
1361;DHT22;674;45.552;-122.600;2022-11-20T00:11:30;4.10;1.00
1361;DHT22;674;45.552;-122.600;2022-11-20T00:14:01;3.80;1.00
1361;DHT22;674;45.552;-122.600;2022-11-20T00:16:31;4.00;1.00
1361;DHT22;674;45.552;-122.600;2022-11-20T00:19:00;3.90;1.00
1361;DHT22;674;45.552;-122.600;2022-11-20T00:21:29;3.80;1.00
1361;DHT22;674;45.552;-122.600;2022-11-20T00:23:58;3.80;1.00
1361;DHT22;674;45.552;-122.600;2022-11-20T00:26:28;3.70;1.00
1361;DHT22;674;45.552;-122.600;2022-11-20T00:28:58;3.70;1.00
1361;DHT22;674;45.552;-122.600;2022-11-20T00:31:27;3.70;1.00
1361;DHT22;674;45.552;-122.600;2022-11-20T00:33:56;3.70;1.00
1361;DHT22;674;45.552;-122.600;2022-11-20T00:36:26;3.50;1.00
1361;DHT22;674;45.552;-122.600;2022-11-20T00:38:58;3.60;1.00
1361;DHT22;674;45.552;-122.600;2022-11-20T00:41:28;3.60;1.00
1361;DHT22;674;45.552;-122.600;2022-11-20T00:43:57;3.50;1.00
1361;DHT22;674;45.552;-122.600;2022-11-20T00:46:27;3.50;1.00
1361;DHT22;674;45.552;-122.600;2022-11-20T00:48:56;3.60;1.00
1361;DHT22;674;45.552;-122.600;2022-11-20T00:51:26;3.80;1.00
1361;DHT22;674;45.552;-122.600;2022-11-20T00:53:56;3.50;1.00
1361;DHT22;674;45.552;-122.600;2022-11-20T00:56:25;3.50;1.00
1361;DHT22;674;45.552;-122.600;2022-11-20T00:58:53;3.50;1.00
1361;DHT22;674;45.552;-122.600;2022-11-20T01:01:24;3.50;1.00
1361;DHT22;674;45.552;-122.600;2022-11-20T01:03:54;3.50;1.00
1361;DHT22;674;45.552;-122.600;2022-11-20T01:06:29;3.40;1.00
1361;DHT22;674;45.552;-122.600;2022-11-20T01:09:00;3.20;1.00
1361;DHT22;674;45.552;-122.600;2022-11-20T01:11:35;3.30;1.00
1361;DHT22;674;45.552;-122.600;2022-11-20T01:14:06;3.30;1.00
1361;DHT22;674;45.552;-122.600;2022-11-20T01:16:37;3.30;1.00
1361;DHT22;674;45.552;-122.600;2022-11-20T01:19:09;3.50;1.00
1361;DHT22;674;45.552;-122.600;2022-11-20T01:21:45;3.30;1.00
1361;DHT22;674;45.552;-122.600;2022-11-20T01:24:16;3.20;1.00
1361;DHT22;674;45.552;-122.600;2022-11-20T01:26:46;3.20;1.00
1361;DHT22;674;45.552;-122.600;2022-11-20T01:29:22;3.50;1.00
1361;DHT22;674;45.552;-122.600;2022-11-20T01:31:52;3.20;1.00
1361;DHT22;674;45.552;-122.600;2022-11-20T01:34:21;3.20;1.00
1361;DHT22;674;45.552;-122.600;2022-11-20T01:36:51;3.10;1.00
1361;DHT22;674;45.552;-122.600;2022-11-20T01:39:25;3.40;1.00
1361;DHT22;674;45.552;-122.600;2022-11-20T01:41:55;3.20;1.00
1361;DHT22;674;45.552;-122.600;2022-11-20T01:44:52;2.90;1.00
1361;DHT22;674;45.552;-122.600;2022-11-20T01:47:34;3.00;1.00
1361;DHT22;674;45.552;-122.600;2022-11-20T01:50:21;3.00;1.00
1361;DHT22;674;45.552;-122.600;2022-11-20T01:53:04;3.10;1.00
1361;DHT22;674;45.552;-122.600;2022-11-20T01:55:36;3.20;1.00
1361;DHT22;674;45.552;-122.600;2022-11-20T01:58:06;3.10;1.00
1361;DHT22;674;45.552;-122.600;2022-11-20T02:00:35;3.20;1.00
1361;DHT22;674;45.552;-122.600;2022-11-20T02:03:13;3.00;1.00
1361;DHT22;674;45.552;-122.600;2022-11-20T02:08:22;3.00;1.00
1361;DHT22;674;45.552;-122.600;2022-11-20T02:10:51;2.90;1.00
1361;DHT22;674;45.552;-122.600;2022-11-20T02:13:20;3.00;1.00
1361;DHT22;674;45.552;-122.600;2022-11-20T02:16:13;2.90;1.00
1361;DHT22;674;45.552;-122.600;2022-11-20T02:18:44;3.00;1.00
1361;DHT22;674;45.552;-122.600;2022-11-20T02:21:33;2.90;1.00
1361;DHT22;674;45.552;-122.600;2022-11-20T02:26:46;3.20;1.00
1361;DHT22;674;45.552;-122.600;2022-11-20T02:29:18;3.00;1.00
1361;DHT22;674;45.552;-122.600;2022-11-20T02:31:48;2.90;1.00
1361;DHT22;674;45.552;-122.600;2022-11-20T02:34:16;2.80;1.00
1361;DHT22;674;45.552;-122.600;2022-11-20T02:36:45;2.90;1.00
1361;DHT22;674;45.552;-122.600;2022-11-20T02:39:15;2.80;1.00
1361;DHT22;674;45.552;-122.600;2022-11-20T02:41:45;2.70;1.00
1361;DHT22;674;45.552;-122.600;2022-11-20T02:44:14;2.70;1.00
1361;DHT22;674;45.552;-122.600;2022-11-20T02:46:42;2.70;1.00
1361;DHT22;674;45.552;-122.600;2022-11-20T02:49:11;2.80;1.00
1361;DHT22;674;45.552;-122.600;2022-11-20T02:51:40;2.80;1.00
1361;DHT22;674;45.552;-122.600;2022-11-20T02:54:08;2.70;1.00
1361;DHT22;674;45.552;-122.600;2022-11-20T02:56:38;2.70;1.00
1361;DHT22;674;45.552;-122.600;2022-11-20T02:59:07;2.60;1.00
1361;DHT22;674;45.552;-122.600;2022-11-20T03:01:36;2.70;1.00
1361;DHT22;674;45.552;-122.600;2022-11-20T03:04:04;2.80;1.00
1361;DHT22;674;45.552;-122.600;2022-11-20T03:06:33;2.80;1.00
1361;DHT22;674;45.552;-122.600;2022-11-20T03:09:01;2.60;1.00
1361;DHT22;674;45.552;-122.600;2022-11-20T03:11:30;2.70;1.00
1361;DHT22;674;45.552;-122.600;2022-11-20T03:14:02;2.70;1.00
1361;DHT22;674;45.552;-122.600;2022-11-20T03:16:31;2.80;1.00
1361;DHT22;674;45.552;-122.600;2022-11-20T03:19:00;2.80;1.00
1361;DHT22;674;45.552;-122.600;2022-11-20T03:21:29;2.80;1.00
1361;DHT22;674;45.552;-122.600;2022-11-20T03:23:57;2.70;1.00
1361;DHT22;674;45.552;-122.600;2022-11-20T03:26:26;2.90;1.00
1361;DHT22;674;45.552;-122.600;2022-11-20T03:29:00;2.70;1.00
1361;DHT22;674;45.552;-122.600;2022-11-20T03:31:31;2.80;1.00
1361;DHT22;674;45.552;-122.600;2022-11-20T03:34:00;2.80;1.00
1361;DHT22;674;45.552;-122.600;2022-11-20T03:36:30;2.80;1.00
1361;DHT22;674;45.552;-122.600;2022-11-20T03:38:58;2.70;1.00
1361;DHT22;674;45.552;-122.600;2022-11-20T03:41:29;2.70;1.00
1361;DHT22;674;45.552;-122.600;2022-11-20T03:44:00;2.80;1.00
1361;DHT22;674;45.552;-122.600;2022-11-20T03:46:30;2.80;1.00
1361;DHT22;674;45.552;-122.600;2022-11-20T03:48:59;2.70;1.00
1361;DHT22;674;45.552;-122.600;2022-11-20T03:51:32;2.70;1.00
1361;DHT22;674;45.552;-122.600;2022-11-20T03:54:04;2.70;1.00
1361;DHT22;674;45.552;-122.600;2022-11-20T03:56:37;2.70;1.00
1361;DHT22;674;45.552;-122.600;2022-11-20T03:59:06;2.80;1.00
1361;DHT22;674;45.552;-122.600;2022-11-20T04:01:36;2.50;1.00
1361;DHT22;674;45.552;-122.600;2022-11-20T04:04:05;2.50;1.00
1361;DHT22;674;45.552;-122.600;2022-11-20T04:06:36;2.60;1.00
1361;DHT22;674;45.552;-122.600;2022-11-20T04:09:06;2.50;1.00
1361;DHT22;674;45.552;-122.600;2022-11-20T04:11:36;2.60;1.00
1361;DHT22;674;45.552;-122.600;2022-11-20T04:14:06;2.60;1.00
1361;DHT22;674;45.552;-122.600;2022-11-20T04:16:40;2.70;1.00
1361;DHT22;674;45.552;-122.600;2022-11-20T04:19:13;2.40;1.00
1361;DHT22;674;45.552;-122.600;2022-11-20T04:21:43;2.50;1.00
1361;DHT22;674;45.552;-122.600;2022-11-20T04:24:12;2.50;1.00
1361;DHT22;674;45.552;-122.600;2022-11-20T04:26:40;2.50;1.00
1361;DHT22;674;45.552;-122.600;2022-11-20T04:29:11;2.50;1.00
1361;DHT22;674;45.552;-122.600;2022-11-20T04:31:40;2.60;1.00
1361;DHT22;674;45.552;-122.600;2022-11-20T04:34:10;2.40;1.00
1361;DHT22;674;45.552;-122.600;2022-11-20T04:36:39;2.70;1.00
1361;DHT22;674;45.552;-122.600;2022-11-20T04:39:11;2.40;1.00
1361;DHT22;674;45.552;-122.600;2022-11-20T04:41:40;2.30;1.00
1361;DHT22;674;45.552;-122.600;2022-11-20T04:44:08;2.30;1.00
1361;DHT22;674;45.552;-122.600;2022-11-20T04:46:39;2.50;1.00
1361;DHT22;674;45.552;-122.600;2022-11-20T04:49:08;2.50;1.00
1361;DHT22;674;45.552;-122.600;2022-11-20T04:51:37;2.50;1.00
1361;DHT22;674;45.552;-122.600;2022-11-20T04:54:05;2.30;1.00
1361;DHT22;674;45.552;-122.600;2022-11-20T04:56:33;2.30;1.00
1361;DHT22;674;45.552;-122.600;2022-11-20T04:59:02;2.20;1.00
1361;DHT22;674;45.552;-122.600;2022-11-20T05:01:31;2.30;1.00
1361;DHT22;674;45.552;-122.600;2022-11-20T05:04:00;2.20;1.00
1361;DHT22;674;45.552;-122.600;2022-11-20T05:06:28;2.30;1.00
1361;DHT22;674;45.552;-122.600;2022-11-20T05:08:57;2.30;1.00
1361;DHT22;674;45.552;-122.600;2022-11-20T05:11:25;2.40;1.00
1361;DHT22;674;45.552;-122.600;2022-11-20T05:13:58;2.20;1.00
1361;DHT22;674;45.552;-122.600;2022-11-20T05:16:28;2.20;1.00
1361;DHT22;674;45.552;-122.600;2022-11-20T05:18:56;2.30;1.00
1361;DHT22;674;45.552;-122.600;2022-11-20T05:21:25;2.30;1.00
1361;DHT22;674;45.552;-122.600;2022-11-20T05:23:53;2.30;1.00
1361;DHT22;674;45.552;-122.600;2022-11-20T05:26:22;2.30;1.00
1361;DHT22;674;45.552;-122.600;2022-11-20T05:28:51;2.20;1.00
1361;DHT22;674;45.552;-122.600;2022-11-20T05:31:22;2.20;1.00
1361;DHT22;674;45.552;-122.600;2022-11-20T05:33:55;2.20;1.00
1361;DHT22;674;45.552;-122.600;2022-11-20T05:36:24;2.20;1.00
1361;DHT22;674;45.552;-122.600;2022-11-20T05:38:53;2.40;1.00
1361;DHT22;674;45.552;-122.600;2022-11-20T05:41:28;2.20;1.00
1361;DHT22;674;45.552;-122.600;2022-11-20T05:43:57;2.20;1.00
1361;DHT22;674;45.552;-122.600;2022-11-20T05:46:26;2.10;1.00
1361;DHT22;674;45.552;-122.600;2022-11-20T05:48:57;2.30;1.00
1361;DHT22;674;45.552;-122.600;2022-11-20T05:51:26;2.10;1.00
1361;DHT22;674;45.552;-122.600;2022-11-20T05:53:57;2.30;1.00
1361;DHT22;674;45.552;-122.600;2022-11-20T05:56:26;2.30;1.00
1361;DHT22;674;45.552;-122.600;2022-11-20T05:58:55;2.00;1.00
1361;DHT22;674;45.552;-122.600;2022-11-20T06:01:25;2.10;1.00
1361;DHT22;674;45.552;-122.600;2022-11-20T06:03:54;2.20;1.00
1361;DHT22;674;45.552;-122.600;2022-11-20T06:06:22;2.00;1.00
1361;DHT22;674;45.552;-122.600;2022-11-20T06:08:51;2.00;1.00
1361;DHT22;674;45.552;-122.600;2022-11-20T06:11:19;2.30;1.00
1361;DHT22;674;45.552;-122.600;2022-11-20T06:13:48;1.90;1.00
1361;DHT22;674;45.552;-122.600;2022-11-20T06:16:18;1.80;1.00
1361;DHT22;674;45.552;-122.600;2022-11-20T06:18:48;1.90;1.00
1361;DHT22;674;45.552;-122.600;2022-11-20T06:21:19;1.90;1.00
1361;DHT22;674;45.552;-122.600;2022-11-20T06:23:48;2.10;1.00
1361;DHT22;674;45.552;-122.600;2022-11-20T06:26:20;2.10;1.00
1361;DHT22;674;45.552;-122.600;2022-11-20T06:28:49;2.10;1.00
1361;DHT22;674;45.552;-122.600;2022-11-20T06:31:20;2.00;1.00
1361;DHT22;674;45.552;-122.600;2022-11-20T06:33:50;2.00;1.00
1361;DHT22;674;45.552;-122.600;2022-11-20T06:36:20;1.80;1.00
1361;DHT22;674;45.552;-122.600;2022-11-20T06:38:49;2.00;1.00
1361;DHT22;674;45.552;-122.600;2022-11-20T06:41:20;2.00;1.00
1361;DHT22;674;45.552;-122.600;2022-11-20T06:43:49;2.10;1.00
1361;DHT22;674;45.552;-122.600;2022-11-20T06:46:19;1.90;1.00
1361;DHT22;674;45.552;-122.600;2022-11-20T06:48:48;1.60;1.00
1361;DHT22;674;45.552;-122.600;2022-11-20T06:51:18;1.90;1.00
1361;DHT22;674;45.552;-122.600;2022-11-20T06:53:46;1.80;1.00
1361;DHT22;674;45.552;-122.600;2022-11-20T06:56:15;1.80;1.00
1361;DHT22;674;45.552;-122.600;2022-11-20T06:58:43;1.70;1.00
1361;DHT22;674;45.552;-122.600;2022-11-20T07:01:14;1.90;1.00
1361;DHT22;674;45.552;-122.600;2022-11-20T07:03:43;1.70;1.00
1361;DHT22;674;45.552;-122.600;2022-11-20T07:06:17;1.70;1.00
1361;DHT22;674;45.552;-122.600;2022-11-20T07:08:45;1.70;1.00
1361;DHT22;674;45.552;-122.600;2022-11-20T07:11:14;1.70;1.00
1361;DHT22;674;45.552;-122.600;2022-11-20T07:13:43;1.80;1.00
1361;DHT22;674;45.552;-122.600;2022-11-20T07:16:11;1.70;1.00
1361;DHT22;674;45.552;-122.600;2022-11-20T07:18:40;1.70;1.00
1361;DHT22;674;45.552;-122.600;2022-11-20T07:21:16;1.70;1.00
1361;DHT22;674;45.552;-122.600;2022-11-20T07:23:44;1.70;1.00
1361;DHT22;674;45.552;-122.600;2022-11-20T07:26:13;1.70;1.00
1361;DHT22;674;45.552;-122.600;2022-11-20T07:28:44;1.60;1.00
1361;DHT22;674;45.552;-122.600;2022-11-20T07:31:13;1.70;1.00
1361;DHT22;674;45.552;-122.600;2022-11-20T07:33:46;1.80;1.00
1361;DHT22;674;45.552;-122.600;2022-11-20T07:36:14;1.80;1.00
1361;DHT22;674;45.552;-122.600;2022-11-20T07:38:43;1.70;1.00
1361;DHT22;674;45.552;-122.600;2022-11-20T07:41:11;1.80;1.00
1361;DHT22;674;45.552;-122.600;2022-11-20T07:43:39;1.60;1.00
1361;DHT22;674;45.552;-122.600;2022-11-20T07:46:08;1.70;1.00
1361;DHT22;674;45.552;-122.600;2022-11-20T07:48:36;1.70;1.00
1361;DHT22;674;45.552;-122.600;2022-11-20T07:51:05;1.70;1.00
1361;DHT22;674;45.552;-122.600;2022-11-20T07:53:33;1.70;1.00
1361;DHT22;674;45.552;-122.600;2022-11-20T07:56:02;1.60;1.00
1361;DHT22;674;45.552;-122.600;2022-11-20T07:58:31;1.70;1.00
1361;DHT22;674;45.552;-122.600;2022-11-20T08:01:06;1.50;1.00
1361;DHT22;674;45.552;-122.600;2022-11-20T08:03:36;1.70;1.00
1361;DHT22;674;45.552;-122.600;2022-11-20T08:06:07;1.50;1.00
1361;DHT22;674;45.552;-122.600;2022-11-20T08:08:35;1.80;1.00
1361;DHT22;674;45.552;-122.600;2022-11-20T08:11:09;1.60;1.00
1361;DHT22;674;45.552;-122.600;2022-11-20T08:13:55;1.40;1.00
1361;DHT22;674;45.552;-122.600;2022-11-20T08:16:47;1.20;1.00
1361;DHT22;674;45.552;-122.600;2022-11-20T08:19:19;1.60;1.00
1361;DHT22;674;45.552;-122.600;2022-11-20T08:21:48;1.30;1.00
1361;DHT22;674;45.552;-122.600;2022-11-20T08:24:16;1.40;1.00
1361;DHT22;674;45.552;-122.600;2022-11-20T08:26:45;1.60;1.00
1361;DHT22;674;45.552;-122.600;2022-11-20T08:29:13;1.40;1.00
1361;DHT22;674;45.552;-122.600;2022-11-20T08:31:41;1.50;1.00
1361;DHT22;674;45.552;-122.600;2022-11-20T08:34:10;1.30;1.00
1361;DHT22;674;45.552;-122.600;2022-11-20T08:36:44;1.40;1.00
1361;DHT22;674;45.552;-122.600;2022-11-20T08:39:13;1.40;1.00
1361;DHT22;674;45.552;-122.600;2022-11-20T08:41:42;1.20;1.00
1361;DHT22;674;45.552;-122.600;2022-11-20T08:44:10;1.40;1.00
1361;DHT22;674;45.552;-122.600;2022-11-20T08:46:40;1.20;1.00
1361;DHT22;674;45.552;-122.600;2022-11-20T08:49:11;1.30;1.00
1361;DHT22;674;45.552;-122.600;2022-11-20T08:51:40;1.40;1.00
1361;DHT22;674;45.552;-122.600;2022-11-20T08:54:09;1.30;1.00
1361;DHT22;674;45.552;-122.600;2022-11-20T08:56:37;1.50;1.00
1361;DHT22;674;45.552;-122.600;2022-11-20T08:59:06;1.50;1.00
1361;DHT22;674;45.552;-122.600;2022-11-20T09:01:54;1.50;1.00
1361;DHT22;674;45.552;-122.600;2022-11-20T09:04:23;1.40;1.00
1361;DHT22;674;45.552;-122.600;2022-11-20T09:06:51;1.50;1.00
1361;DHT22;674;45.552;-122.600;2022-11-20T09:09:19;1.20;1.00
1361;DHT22;674;45.552;-122.600;2022-11-20T09:11:48;1.50;1.00
1361;DHT22;674;45.552;-122.600;2022-11-20T09:14:18;1.20;1.00
1361;DHT22;674;45.552;-122.600;2022-11-20T09:16:46;1.30;1.00
1361;DHT22;674;45.552;-122.600;2022-11-20T09:19:15;1.50;1.00
1361;DHT22;674;45.552;-122.600;2022-11-20T09:22:03;1.50;1.00
1361;DHT22;674;45.552;-122.600;2022-11-20T09:24:31;1.30;1.00
1361;DHT22;674;45.552;-122.600;2022-11-20T09:27:02;1.50;1.00
1361;DHT22;674;45.552;-122.600;2022-11-20T09:29:31;1.40;1.00
1361;DHT22;674;45.552;-122.600;2022-11-20T09:32:00;1.50;1.00
1361;DHT22;674;45.552;-122.600;2022-11-20T09:34:28;1.50;1.00
1361;DHT22;674;45.552;-122.600;2022-11-20T09:36:56;1.30;1.00
1361;DHT22;674;45.552;-122.600;2022-11-20T09:39:30;1.30;1.00
1361;DHT22;674;45.552;-122.600;2022-11-20T09:42:23;1.30;1.00
1361;DHT22;674;45.552;-122.600;2022-11-20T09:45:14;1.40;1.00
1361;DHT22;674;45.552;-122.600;2022-11-20T09:50:35;1.50;1.00
1361;DHT22;674;45.552;-122.600;2022-11-20T09:53:25;1.20;1.00
1361;DHT22;674;45.552;-122.600;2022-11-20T09:55:56;1.10;1.00
1361;DHT22;674;45.552;-122.600;2022-11-20T09:58:35;1.40;1.00
1361;DHT22;674;45.552;-122.600;2022-11-20T10:01:18;1.10;1.00
1361;DHT22;674;45.552;-122.600;2022-11-20T10:04:08;1.20;1.00
1361;DHT22;674;45.552;-122.600;2022-11-20T10:09:55;1.40;1.00
1361;DHT22;674;45.552;-122.600;2022-11-20T10:12:39;1.50;1.00
1361;DHT22;674;45.552;-122.600;2022-11-20T10:20:56;1.50;1.00
1361;DHT22;674;45.552;-122.600;2022-11-20T10:29:12;1.20;1.00
1361;DHT22;674;45.552;-122.600;2022-11-20T10:32:00;1.50;1.00
1361;DHT22;674;45.552;-122.600;2022-11-20T10:34:52;1.50;1.00
1361;DHT22;674;45.552;-122.600;2022-11-20T10:37:26;1.50;1.00
1361;DHT22;674;45.552;-122.600;2022-11-20T10:40:15;1.50;1.00
1361;DHT22;674;45.552;-122.600;2022-11-20T10:43:16;1.50;1.00
1361;DHT22;674;45.552;-122.600;2022-11-20T10:46:09;1.50;1.00
1361;DHT22;674;45.552;-122.600;2022-11-20T10:48:42;1.50;1.00
1361;DHT22;674;45.552;-122.600;2022-11-20T10:54:36;1.50;1.00
1361;DHT22;674;45.552;-122.600;2022-11-20T10:58:00;1.50;1.00
1361;DHT22;674;45.552;-122.600;2022-11-20T11:00:09;1.40;1.00
1361;DHT22;674;45.552;-122.600;2022-11-20T11:02:43;1.20;1.00
1361;DHT22;674;45.552;-122.600;2022-11-20T11:07:57;1.30;1.00
1361;DHT22;674;45.552;-122.600;2022-11-20T11:13:27;1.10;1.00
1361;DHT22;674;45.552;-122.600;2022-11-20T11:15:56;1.20;1.00
1361;DHT22;674;45.552;-122.600;2022-11-20T11:18:31;1.20;1.00
1361;DHT22;674;45.552;-122.600;2022-11-20T11:21:01;1.10;1.00
1361;DHT22;674;45.552;-122.600;2022-11-20T11:23:37;1.30;1.00
1361;DHT22;674;45.552;-122.600;2022-11-20T11:26:26;1.20;1.00
1361;DHT22;674;45.552;-122.600;2022-11-20T11:29:00;1.20;1.00
1361;DHT22;674;45.552;-122.600;2022-11-20T11:31:31;1.00;1.00
1361;DHT22;674;45.552;-122.600;2022-11-20T11:34:14;1.20;1.00
1361;DHT22;674;45.552;-122.600;2022-11-20T11:36:56;1.10;1.00
1361;DHT22;674;45.552;-122.600;2022-11-20T11:39:26;1.10;1.00
1361;DHT22;674;45.552;-122.600;2022-11-20T11:41:55;1.20;1.00
1361;DHT22;674;45.552;-122.600;2022-11-20T11:44:33;1.10;1.00
1361;DHT22;674;45.552;-122.600;2022-11-20T11:47:33;1.00;1.00
1361;DHT22;674;45.552;-122.600;2022-11-20T11:55:17;1.20;1.00
1361;DHT22;674;45.552;-122.600;2022-11-20T11:57:52;1.20;1.00
1361;DHT22;674;45.552;-122.600;2022-11-20T12:00:22;1.10;1.00
1361;DHT22;674;45.552;-122.600;2022-11-20T12:05:47;1.20;1.00
1361;DHT22;674;45.552;-122.600;2022-11-20T12:11:37;1.00;1.00
1361;DHT22;674;45.552;-122.600;2022-11-20T12:14:33;1.30;1.00
1361;DHT22;674;45.552;-122.600;2022-11-20T12:17:02;1.30;1.00
1361;DHT22;674;45.552;-122.600;2022-11-20T12:19:34;1.30;1.00
1361;DHT22;674;45.552;-122.600;2022-11-20T12:25:17;1.20;1.00
1361;DHT22;674;45.552;-122.600;2022-11-20T12:30:21;1.10;1.00
1361;DHT22;674;45.552;-122.600;2022-11-20T12:36:07;1.20;1.00
1361;DHT22;674;45.552;-122.600;2022-11-20T12:38:59;0.90;1.00
1361;DHT22;674;45.552;-122.600;2022-11-20T12:51:16;1.10;1.00
1361;DHT22;674;45.552;-122.600;2022-11-20T13:05:00;1.00;1.00
1361;DHT22;674;45.552;-122.600;2022-11-20T13:07:29;1.00;1.00
1361;DHT22;674;45.552;-122.600;2022-11-20T13:09:59;1.00;1.00
1361;DHT22;674;45.552;-122.600;2022-11-20T13:12:40;1.00;1.00
1361;DHT22;674;45.552;-122.600;2022-11-20T13:18:08;1.00;1.00
1361;DHT22;674;45.552;-122.600;2022-11-20T13:20:42;1.00;1.00
1361;DHT22;674;45.552;-122.600;2022-11-20T13:23:22;0.90;1.00
1361;DHT22;674;45.552;-122.600;2022-11-20T13:25:50;0.90;1.00
1361;DHT22;674;45.552;-122.600;2022-11-20T13:30:53;0.90;1.00
1361;DHT22;674;45.552;-122.600;2022-11-20T13:33:35;1.00;1.00
1361;DHT22;674;45.552;-122.600;2022-11-20T13:36:21;1.00;1.00
1361;DHT22;674;45.552;-122.600;2022-11-20T13:38:52;0.80;1.00
1361;DHT22;674;45.552;-122.600;2022-11-20T13:41:33;0.60;1.00
1361;DHT22;674;45.552;-122.600;2022-11-20T13:46:57;1.00;1.00
1361;DHT22;674;45.552;-122.600;2022-11-20T13:49:38;1.00;1.00
1361;DHT22;674;45.552;-122.600;2022-11-20T13:52:41;1.00;1.00
1361;DHT22;674;45.552;-122.600;2022-11-20T14:01:32;0.90;1.00
1361;DHT22;674;45.552;-122.600;2022-11-20T14:04:07;1.20;1.00
1361;DHT22;674;45.552;-122.600;2022-11-20T14:06:42;1.10;1.00
1361;DHT22;674;45.552;-122.600;2022-11-20T14:09:23;1.00;1.00
1361;DHT22;674;45.552;-122.600;2022-11-20T14:11:52;1.10;1.00
1361;DHT22;674;45.552;-122.600;2022-11-20T14:14:23;0.80;1.00
1361;DHT22;674;45.552;-122.600;2022-11-20T14:16:53;1.00;1.00
1361;DHT22;674;45.552;-122.600;2022-11-20T14:19:32;1.00;1.00
1361;DHT22;674;45.552;-122.600;2022-11-20T14:22:19;1.10;1.00
1361;DHT22;674;45.552;-122.600;2022-11-20T14:24:49;0.80;1.00
1361;DHT22;674;45.552;-122.600;2022-11-20T14:27:28;1.10;1.00
1361;DHT22;674;45.552;-122.600;2022-11-20T14:29:57;1.10;1.00
1361;DHT22;674;45.552;-122.600;2022-11-20T14:32:30;0.90;1.00
1361;DHT22;674;45.552;-122.600;2022-11-20T14:35:06;0.90;1.00
1361;DHT22;674;45.552;-122.600;2022-11-20T14:37:41;0.90;1.00
1361;DHT22;674;45.552;-122.600;2022-11-20T14:42:57;1.00;1.00
1361;DHT22;674;45.552;-122.600;2022-11-20T14:45:26;1.00;1.00
1361;DHT22;674;45.552;-122.600;2022-11-20T14:47:57;1.00;1.00
1361;DHT22;674;45.552;-122.600;2022-11-20T14:50:28;1.00;1.00
1361;DHT22;674;45.552;-122.600;2022-11-20T14:52:58;1.00;1.00
1361;DHT22;674;45.552;-122.600;2022-11-20T14:55:35;0.90;1.00
1361;DHT22;674;45.552;-122.600;2022-11-20T14:58:06;0.90;1.00
1361;DHT22;674;45.552;-122.600;2022-11-20T15:00:35;0.50;1.00
1361;DHT22;674;45.552;-122.600;2022-11-20T15:03:15;0.60;1.00
1361;DHT22;674;45.552;-122.600;2022-11-20T15:05:48;0.80;1.00
1361;DHT22;674;45.552;-122.600;2022-11-20T15:08:17;1.00;1.00
1361;DHT22;674;45.552;-122.600;2022-11-20T15:10:50;0.90;1.00
1361;DHT22;674;45.552;-122.600;2022-11-20T15:13:32;1.00;1.00
1361;DHT22;674;45.552;-122.600;2022-11-20T15:16:02;1.00;1.00
1361;DHT22;674;45.552;-122.600;2022-11-20T15:18:38;0.90;1.00
1361;DHT22;674;45.552;-122.600;2022-11-20T15:21:12;0.90;1.00
1361;DHT22;674;45.552;-122.600;2022-11-20T15:23:42;0.90;1.00
1361;DHT22;674;45.552;-122.600;2022-11-20T15:26:11;0.80;1.00
1361;DHT22;674;45.552;-122.600;2022-11-20T15:28:47;0.80;1.00
1361;DHT22;674;45.552;-122.600;2022-11-20T15:31:22;1.00;1.00
1361;DHT22;674;45.552;-122.600;2022-11-20T15:33:51;1.00;1.00
1361;DHT22;674;45.552;-122.600;2022-11-20T15:36:19;0.90;1.00
1361;DHT22;674;45.552;-122.600;2022-11-20T15:38:48;0.90;1.00
1361;DHT22;674;45.552;-122.600;2022-11-20T15:41:17;0.80;1.00
1361;DHT22;674;45.552;-122.600;2022-11-20T15:43:45;0.90;1.00
1361;DHT22;674;45.552;-122.600;2022-11-20T15:46:22;0.90;1.00
1361;DHT22;674;45.552;-122.600;2022-11-20T15:48:57;0.80;1.00
1361;DHT22;674;45.552;-122.600;2022-11-20T15:53:58;0.90;1.00
1361;DHT22;674;45.552;-122.600;2022-11-20T15:56:27;1.00;1.00
1361;DHT22;674;45.552;-122.600;2022-11-20T15:58:55;0.90;1.00
1361;DHT22;674;45.552;-122.600;2022-11-20T16:01:23;0.90;1.00
1361;DHT22;674;45.552;-122.600;2022-11-20T16:03:52;0.90;1.00
1361;DHT22;674;45.552;-122.600;2022-11-20T16:06:20;0.90;1.00
1361;DHT22;674;45.552;-122.600;2022-11-20T16:08:49;0.90;1.00
1361;DHT22;674;45.552;-122.600;2022-11-20T16:11:18;1.00;1.00
1361;DHT22;674;45.552;-122.600;2022-11-20T16:13:46;0.80;1.00
1361;DHT22;674;45.552;-122.600;2022-11-20T16:16:35;1.30;1.00
1361;DHT22;674;45.552;-122.600;2022-11-20T16:19:04;1.20;1.00
1361;DHT22;674;45.552;-122.600;2022-11-20T16:21:32;1.10;1.00
1361;DHT22;674;45.552;-122.600;2022-11-20T16:24:03;1.00;1.00
1361;DHT22;674;45.552;-122.600;2022-11-20T16:26:32;1.40;1.00
1361;DHT22;674;45.552;-122.600;2022-11-20T16:29:01;1.50;1.00
1361;DHT22;674;45.552;-122.600;2022-11-20T16:31:30;1.40;1.00
1361;DHT22;674;45.552;-122.600;2022-11-20T16:34:02;1.70;1.00
1361;DHT22;674;45.552;-122.600;2022-11-20T16:36:40;1.80;1.00
1361;DHT22;674;45.552;-122.600;2022-11-20T16:39:10;2.10;1.00
1361;DHT22;674;45.552;-122.600;2022-11-20T16:41:38;2.30;1.00
1361;DHT22;674;45.552;-122.600;2022-11-20T16:44:09;3.00;1.00
1361;DHT22;674;45.552;-122.600;2022-11-20T16:46:38;3.50;1.00
1361;DHT22;674;45.552;-122.600;2022-11-20T16:49:12;3.80;1.00
1361;DHT22;674;45.552;-122.600;2022-11-20T16:51:40;3.60;1.00
1361;DHT22;674;45.552;-122.600;2022-11-20T16:54:10;3.70;1.00
1361;DHT22;674;45.552;-122.600;2022-11-20T16:56:45;3.70;1.00
1361;DHT22;674;45.552;-122.600;2022-11-20T16:59:18;3.50;1.00
1361;DHT22;674;45.552;-122.600;2022-11-20T17:01:47;4.10;1.00
1361;DHT22;674;45.552;-122.600;2022-11-20T17:04:16;3.30;1.00
1361;DHT22;674;45.552;-122.600;2022-11-20T17:06:45;3.40;1.00
1361;DHT22;674;45.552;-122.600;2022-11-20T17:09:14;3.00;1.00
1361;DHT22;674;45.552;-122.600;2022-11-20T17:11:43;2.80;1.00
1361;DHT22;674;45.552;-122.600;2022-11-20T17:14:11;3.10;1.00
1361;DHT22;674;45.552;-122.600;2022-11-20T17:16:40;2.80;1.00
1361;DHT22;674;45.552;-122.600;2022-11-20T17:19:08;2.80;1.00
1361;DHT22;674;45.552;-122.600;2022-11-20T17:21:37;2.70;1.00
1361;DHT22;674;45.552;-122.600;2022-11-20T17:24:11;2.70;1.00
1361;DHT22;674;45.552;-122.600;2022-11-20T17:26:41;2.70;1.00
1361;DHT22;674;45.552;-122.600;2022-11-20T17:29:15;3.10;1.00
1361;DHT22;674;45.552;-122.600;2022-11-20T17:31:45;2.90;1.00
1361;DHT22;674;45.552;-122.600;2022-11-20T17:34:16;3.00;1.00
1361;DHT22;674;45.552;-122.600;2022-11-20T17:36:44;3.20;1.00
1361;DHT22;674;45.552;-122.600;2022-11-20T17:39:14;3.20;1.00
1361;DHT22;674;45.552;-122.600;2022-11-20T17:41:43;3.10;1.00
1361;DHT22;674;45.552;-122.600;2022-11-20T17:44:12;3.10;1.00
1361;DHT22;674;45.552;-122.600;2022-11-20T17:46:41;3.20;1.00
1361;DHT22;674;45.552;-122.600;2022-11-20T17:49:09;3.20;1.00
1361;DHT22;674;45.552;-122.600;2022-11-20T17:51:37;3.30;1.00
1361;DHT22;674;45.552;-122.600;2022-11-20T17:54:09;3.60;1.00
1361;DHT22;674;45.552;-122.600;2022-11-20T17:56:37;3.50;1.00
1361;DHT22;674;45.552;-122.600;2022-11-20T17:59:24;3.50;1.00
1361;DHT22;674;45.552;-122.600;2022-11-20T18:01:52;3.50;1.00
1361;DHT22;674;45.552;-122.600;2022-11-20T18:04:27;3.70;1.00
1361;DHT22;674;45.552;-122.600;2022-11-20T18:06:55;4.10;1.00